createdAt,value
2022-10-17T00:01:07.306Z,2.25
2022-10-17T00:03:36.142Z,1.78
2022-10-17T00:06:10.282Z,1.93
2022-10-17T00:08:37.979Z,1.88
2022-10-17T00:11:09.214Z,1.98
2022-10-17T00:13:36.323Z,2.08
2022-10-17T00:16:03.572Z,2.15
2022-10-17T00:18:30.269Z,2.23
2022-10-17T00:20:57.306Z,2.24
2022-10-17T00:23:24.265Z,2.28
2022-10-17T00:26:06.038Z,2.13
2022-10-17T00:28:33.099Z,1.76
2022-10-17T00:31:02.526Z,1.94
2022-10-17T00:33:29.918Z,1.96
2022-10-17T00:36:14.588Z,1.83
2022-10-17T00:38:43.795Z,2.00
2022-10-17T00:41:12.684Z,2.09
2022-10-17T00:44:17.042Z,1.98
2022-10-17T00:46:43.750Z,2.02
2022-10-17T00:49:12.536Z,1.67
2022-10-17T00:51:49.325Z,1.82
2022-10-17T00:54:19.229Z,1.74
2022-10-17T00:56:48.481Z,1.77
2022-10-17T00:59:17.781Z,1.78
2022-10-17T01:01:54.059Z,1.73
2022-10-17T01:04:21.419Z,1.72
2022-10-17T01:06:48.065Z,1.80
2022-10-17T01:09:14.757Z,1.82
2022-10-17T01:11:59.951Z,1.61
2022-10-17T01:15:04.240Z,1.60
2022-10-17T01:17:55.641Z,1.66
2022-10-17T01:20:37.526Z,1.46
2022-10-17T01:23:29.009Z,1.59
2022-10-17T01:26:33.122Z,1.52
2022-10-17T01:29:41.904Z,1.43
2022-10-17T01:32:29.791Z,1.43
2022-10-17T01:35:04.206Z,1.38
2022-10-17T01:37:33.205Z,1.60
2022-10-17T01:40:05.978Z,1.56
2022-10-17T01:42:32.617Z,1.66
2022-10-17T01:45:10.699Z,1.40
2022-10-17T01:47:38.628Z,1.47
2022-10-17T01:50:16.955Z,1.55
2022-10-17T01:52:48.803Z,1.52
2022-10-17T01:55:20.557Z,1.71
2022-10-17T01:57:52.014Z,1.51
2022-10-17T02:00:24.824Z,1.52
2022-10-17T02:02:57.398Z,1.58
2022-10-17T02:05:30.914Z,1.60
2022-10-17T02:07:57.655Z,1.67
2022-10-17T02:11:06.245Z,1.60
2022-10-17T02:13:38.806Z,1.64
2022-10-17T02:16:18.922Z,1.64
2022-10-17T02:19:22.965Z,1.44
2022-10-17T02:22:01.798Z,1.61
2022-10-17T02:24:49.600Z,1.46
2022-10-17T02:27:28.731Z,1.51
2022-10-17T02:30:24.685Z,1.26
2022-10-17T02:33:20.529Z,1.47
2022-10-17T02:35:54.015Z,1.32
2022-10-17T02:38:23.275Z,1.38
2022-10-17T02:40:52.327Z,1.41
2022-10-17T02:43:20.818Z,1.28
2022-10-17T02:45:48.160Z,1.40
2022-10-17T02:48:33.022Z,1.42
2022-10-17T02:51:16.130Z,1.46
2022-10-17T02:53:45.839Z,1.45
2022-10-17T02:56:18.947Z,1.24
2022-10-17T02:58:54.843Z,1.24
2022-10-17T03:01:22.125Z,1.40
2022-10-17T03:03:48.871Z,1.31
2022-10-17T03:06:15.954Z,1.23
2022-10-17T03:08:42.630Z,1.19
2022-10-17T03:11:09.305Z,1.33
2022-10-17T03:13:39.051Z,1.13
2022-10-17T03:16:06.766Z,1.14
2022-10-17T03:18:33.451Z,1.32
2022-10-17T03:21:00.130Z,0.97
2022-10-17T03:23:26.789Z,1.17
2022-10-17T03:25:53.649Z,1.16
2022-10-17T03:28:20.251Z,1.23
2022-10-17T03:30:46.877Z,1.38
2022-10-17T03:33:13.570Z,1.24
2022-10-17T03:35:40.768Z,1.31
2022-10-17T03:38:07.454Z,1.01
2022-10-17T03:40:34.113Z,1.21
2022-10-17T03:43:00.801Z,1.05
2022-10-17T03:45:27.959Z,1.26
2022-10-17T03:47:54.562Z,1.17
2022-10-17T03:50:21.242Z,1.01
2022-10-17T03:52:49.195Z,0.89
2022-10-17T03:55:16.954Z,1.02
2022-10-17T03:57:45.558Z,1.09
2022-10-17T04:00:13.010Z,1.18
2022-10-17T04:02:39.692Z,1.17
2022-10-17T04:05:07.003Z,1.05
2022-10-17T04:07:33.672Z,1.01
2022-10-17T04:10:00.592Z,1.02
2022-10-17T04:12:27.544Z,1.02
2022-10-17T04:14:54.692Z,0.86
2022-10-17T04:17:21.527Z,0.90
2022-10-17T04:19:49.702Z,0.77
2022-10-17T04:22:16.467Z,0.99
2022-10-17T04:24:43.159Z,0.70
2022-10-17T04:27:09.800Z,0.19
2022-10-17T04:29:36.486Z,0.44
2022-10-17T04:32:03.412Z,0.61
2022-10-17T04:34:30.120Z,0.49
2022-10-17T04:36:56.758Z,0.41
2022-10-17T04:39:23.509Z,0.74
2022-10-17T04:41:50.226Z,0.91
2022-10-17T04:44:16.870Z,0.97
2022-10-17T04:46:44.220Z,1.04
2022-10-17T04:49:10.906Z,0.70
2022-10-17T04:51:38.530Z,0.35
2022-10-17T04:54:05.394Z,0.36
2022-10-17T04:56:32.063Z,0.38
2022-10-17T04:59:00.066Z,0.40
2022-10-17T05:01:27.238Z,0.42
2022-10-17T05:03:54.259Z,0.46
2022-10-17T05:06:23.629Z,0.57
2022-10-17T05:08:50.881Z,0.70
2022-10-17T05:11:28.724Z,0.78
2022-10-17T05:14:00.672Z,0.89
2022-10-17T05:16:28.703Z,0.68
2022-10-17T05:18:57.517Z,0.57
2022-10-17T05:21:27.071Z,0.71
2022-10-17T05:23:54.400Z,0.71
2022-10-17T05:26:22.165Z,1.02
2022-10-17T05:28:48.988Z,1.20
2022-10-17T05:31:15.757Z,1.33
2022-10-17T05:33:42.447Z,1.12
2022-10-17T05:36:09.212Z,1.04
2022-10-17T05:38:35.986Z,1.38
2022-10-17T05:41:05.080Z,1.61
2022-10-17T05:43:33.345Z,1.42
2022-10-17T05:46:04.245Z,1.75
2022-10-17T05:48:30.914Z,1.95
2022-10-17T05:50:59.592Z,2.00
2022-10-17T05:53:26.942Z,2.23
2022-10-17T05:55:58.880Z,2.59
2022-10-17T05:58:45.565Z,3.17
2022-10-17T06:01:13.969Z,4.65
2022-10-17T06:03:40.723Z,6.33
2022-10-17T06:06:10.250Z,8.50
2022-10-17T06:08:37.412Z,9.78
2022-10-17T06:11:09.086Z,10.11
2022-10-17T06:13:37.196Z,10.11
2022-10-17T06:16:03.975Z,11.44
2022-10-17T06:18:30.730Z,12.85
2022-10-17T06:21:08.767Z,14.62
2022-10-17T06:23:35.463Z,14.63
2022-10-17T06:26:04.235Z,15.71
2022-10-17T06:28:31.156Z,15.08
2022-10-17T06:30:57.970Z,13.64
2022-10-17T06:33:24.817Z,14.59
2022-10-17T06:35:55.838Z,15.96
2022-10-17T06:38:22.595Z,16.14
2022-10-17T06:40:49.493Z,18.36
2022-10-17T06:43:16.210Z,16.84
2022-10-17T06:45:42.856Z,18.94
2022-10-17T06:48:09.559Z,18.68
2022-10-17T06:50:36.253Z,18.97
2022-10-17T06:53:03.540Z,19.88
2022-10-17T06:55:31.606Z,20.02
2022-10-17T06:57:58.356Z,18.91
2022-10-17T07:00:26.941Z,19.98
2022-10-17T07:02:53.736Z,20.97
2022-10-17T07:05:20.431Z,21.72
2022-10-17T07:07:49.706Z,21.89
2022-10-17T07:10:18.461Z,19.15
2022-10-17T07:12:45.921Z,19.50
2022-10-17T07:15:13.211Z,20.31
2022-10-17T07:17:40.165Z,22.67
2022-10-17T07:20:07.946Z,21.22
2022-10-17T07:22:34.568Z,21.50
2022-10-17T07:25:01.788Z,22.82
2022-10-17T07:27:29.104Z,23.44
2022-10-17T07:29:55.997Z,24.78
2022-10-17T07:32:22.708Z,21.35
2022-10-17T07:34:49.332Z,22.72
2022-10-17T07:37:16.099Z,22.74
2022-10-17T07:39:42.748Z,22.66
2022-10-17T07:42:10.316Z,22.76
2022-10-17T07:44:37.027Z,22.54
2022-10-17T07:47:04.392Z,21.94
2022-10-17T07:49:31.408Z,20.06
2022-10-17T07:51:58.119Z,20.88
2022-10-17T07:54:24.845Z,20.79
2022-10-17T07:56:51.547Z,18.41
2022-10-17T07:59:19.247Z,18.50
2022-10-17T08:01:45.980Z,20.63
2022-10-17T08:04:12.828Z,21.02
2022-10-17T08:06:39.506Z,19.35
2022-10-17T08:09:06.683Z,19.83
2022-10-17T08:11:33.434Z,20.96
2022-10-17T08:14:00.088Z,21.89
2022-10-17T08:16:26.835Z,21.99
2022-10-17T08:18:53.890Z,22.46
2022-10-17T08:21:20.584Z,21.70
2022-10-17T08:23:47.293Z,22.60
2022-10-17T08:26:17.392Z,21.22
2022-10-17T08:28:44.439Z,20.55
2022-10-17T08:31:13.650Z,21.26
2022-10-17T08:33:41.842Z,21.55
2022-10-17T08:36:09.728Z,20.99
2022-10-17T08:38:40.369Z,20.74
2022-10-17T08:41:34.829Z,20.92
2022-10-17T08:44:05.635Z,20.15
2022-10-17T08:46:37.781Z,20.85
2022-10-17T08:49:12.098Z,20.13
2022-10-17T08:51:47.990Z,20.61
2022-10-17T08:54:24.339Z,21.38
2022-10-17T08:56:54.807Z,21.17
2022-10-17T08:59:29.864Z,19.71
2022-10-17T09:02:18.204Z,20.02
2022-10-17T09:05:26.807Z,20.66
2022-10-17T09:08:16.609Z,20.27
2022-10-17T09:11:01.159Z,21.05
2022-10-17T09:13:45.553Z,21.00
2022-10-17T09:16:23.452Z,20.52
2022-10-17T09:19:07.317Z,21.20
2022-10-17T09:21:44.528Z,21.17
2022-10-17T09:24:46.309Z,21.45
2022-10-17T09:27:39.395Z,21.12
2022-10-17T09:30:46.419Z,20.83
2022-10-17T09:36:24.618Z,21.54
2022-10-17T09:38:58.672Z,21.11
2022-10-17T09:41:46.781Z,22.01
2022-10-17T09:44:41.391Z,21.72
2022-10-17T09:47:39.430Z,21.46
2022-10-17T09:50:20.786Z,21.58
2022-10-17T09:52:50.699Z,22.21
2022-10-17T09:55:21.668Z,20.74
2022-10-17T09:58:08.363Z,20.89
2022-10-17T10:00:41.808Z,21.26
2022-10-17T10:03:19.963Z,21.38
2022-10-17T10:06:06.293Z,21.25
2022-10-17T10:08:36.536Z,21.58
2022-10-17T10:11:13.380Z,20.91
2022-10-17T10:13:41.036Z,21.18
2022-10-17T10:16:17.079Z,21.38
2022-10-17T10:18:47.418Z,21.46
2022-10-17T10:21:22.394Z,21.41
2022-10-17T10:24:10.818Z,21.18
2022-10-17T10:26:47.713Z,21.62
2022-10-17T10:29:26.780Z,21.52
2022-10-17T10:34:47.506Z,22.99
2022-10-17T10:37:38.748Z,22.94
2022-10-17T10:40:44.622Z,21.62
2022-10-17T10:43:42.209Z,21.51
2022-10-17T10:46:29.933Z,22.66
2022-10-17T10:49:00.351Z,22.70
2022-10-17T10:51:45.028Z,23.08
2022-10-17T10:54:18.005Z,22.53
2022-10-17T10:56:53.555Z,21.48
2022-10-17T10:59:33.311Z,21.12
2022-10-17T11:02:18.033Z,21.24
2022-10-17T11:04:52.831Z,21.54
2022-10-17T11:07:26.525Z,20.77
2022-10-17T11:10:12.274Z,21.35
2022-10-17T11:12:38.930Z,21.72
2022-10-17T11:15:25.798Z,21.46
2022-10-17T11:17:59.238Z,21.34
2022-10-17T11:20:58.280Z,22.08
2022-10-17T11:23:34.318Z,22.76
2022-10-17T11:26:07.853Z,21.30
2022-10-17T11:28:34.708Z,20.80
2022-10-17T11:31:07.968Z,21.69
2022-10-17T11:33:59.819Z,21.12
2022-10-17T11:36:30.819Z,20.99
2022-10-17T11:39:03.752Z,20.89
2022-10-17T11:41:43.822Z,21.40
2022-10-17T11:44:29.903Z,21.12
2022-10-17T11:47:01.869Z,21.24
2022-10-17T11:49:38.196Z,21.42
2022-10-17T11:52:51.738Z,22.38
2022-10-17T11:55:27.467Z,22.37
2022-10-17T11:58:33.106Z,21.82
2022-10-17T12:01:05.797Z,22.06
2022-10-17T12:03:49.649Z,22.15
2022-10-17T12:06:16.317Z,22.28
2022-10-17T12:09:02.659Z,22.22
2022-10-17T12:11:41.113Z,21.39
2022-10-17T12:14:39.063Z,21.48
2022-10-17T12:17:23.931Z,20.98
2022-10-17T12:19:50.682Z,20.52
2022-10-17T12:22:21.833Z,19.81
2022-10-17T12:25:04.538Z,20.15
2022-10-17T12:27:46.071Z,20.26
2022-10-17T12:30:12.820Z,19.63
2022-10-17T12:33:05.623Z,19.29
2022-10-17T12:35:35.947Z,19.17
2022-10-17T12:38:19.372Z,19.13
2022-10-17T12:40:50.615Z,18.88
2022-10-17T12:43:17.207Z,18.82
2022-10-17T12:45:53.921Z,18.74
2022-10-17T12:48:40.474Z,18.77
2022-10-17T12:51:34.226Z,18.99
2022-10-17T12:54:15.105Z,19.07
2022-10-17T12:56:47.832Z,18.78
2022-10-17T12:59:16.740Z,19.08
2022-10-17T13:01:51.735Z,19.32
2022-10-17T13:04:19.028Z,19.41
2022-10-17T13:06:54.588Z,19.71
2022-10-17T13:09:35.386Z,19.41
2022-10-17T13:12:05.093Z,18.64
2022-10-17T13:14:34.046Z,18.26
2022-10-17T13:17:03.721Z,18.60
2022-10-17T13:19:39.812Z,18.26
2022-10-17T13:22:18.289Z,18.19
2022-10-17T13:24:45.720Z,18.24
2022-10-17T13:27:26.879Z,18.48
2022-10-17T13:29:56.835Z,18.81
2022-10-17T13:32:25.512Z,18.57
2022-10-17T13:35:07.274Z,18.58
2022-10-17T13:37:35.453Z,18.86
2022-10-17T13:40:17.543Z,19.28
2022-10-17T13:42:51.152Z,19.29
2022-10-17T13:45:24.495Z,19.15
2022-10-17T13:47:51.365Z,18.96
2022-10-17T13:50:44.283Z,19.10
2022-10-17T13:53:31.478Z,19.11
2022-10-17T13:56:23.239Z,18.86
2022-10-17T13:58:52.832Z,18.54
2022-10-17T14:01:21.313Z,18.58
2022-10-17T14:03:51.799Z,18.57
2022-10-17T14:06:25.212Z,17.93
2022-10-17T14:09:05.446Z,18.07
2022-10-17T14:11:44.220Z,17.94
2022-10-17T14:14:23.648Z,17.88
2022-10-17T14:16:50.386Z,18.07
2022-10-17T14:19:28.904Z,18.21
2022-10-17T14:22:14.118Z,18.33
2022-10-17T14:24:42.323Z,18.24
2022-10-17T14:27:27.464Z,18.07
2022-10-17T14:29:56.129Z,17.88
2022-10-17T14:32:22.872Z,17.94
2022-10-17T14:34:58.356Z,17.65
2022-10-17T14:37:45.000Z,17.70
2022-10-17T14:40:20.862Z,17.71
2022-10-17T14:42:48.418Z,17.77
2022-10-17T14:45:23.784Z,17.63
2022-10-17T14:47:52.864Z,17.41
2022-10-17T14:50:28.485Z,17.10
2022-10-17T14:53:10.270Z,16.63
2022-10-17T14:55:38.727Z,16.51
2022-10-17T14:58:22.759Z,16.20
2022-10-17T15:00:49.409Z,15.96
2022-10-17T15:03:19.223Z,15.78
2022-10-17T15:05:50.011Z,15.50
2022-10-17T15:08:18.544Z,15.32
2022-10-17T15:10:46.834Z,15.01
2022-10-17T15:13:27.699Z,14.93
2022-10-17T15:15:55.207Z,14.65
2022-10-17T15:18:21.886Z,14.43
2022-10-17T15:20:55.251Z,14.10
2022-10-17T15:23:31.447Z,13.81
2022-10-17T15:25:58.081Z,13.85
2022-10-17T15:28:24.774Z,13.77
2022-10-17T15:30:51.514Z,13.24
2022-10-17T15:33:18.249Z,13.12
2022-10-17T15:35:45.082Z,12.86
2022-10-17T15:38:17.139Z,12.40
2022-10-17T15:40:43.828Z,11.90
2022-10-17T15:43:10.507Z,11.81
2022-10-17T15:45:37.902Z,11.67
2022-10-17T15:48:07.388Z,11.57
2022-10-17T15:50:34.558Z,11.48
2022-10-17T15:53:01.197Z,11.11
2022-10-17T15:55:28.052Z,10.84
2022-10-17T15:57:54.845Z,10.90
2022-10-17T16:00:23.774Z,10.69
2022-10-17T16:02:51.000Z,10.21
2022-10-17T16:05:23.454Z,10.38
2022-10-17T16:07:50.583Z,10.14
2022-10-17T16:10:17.787Z,10.17
2022-10-17T16:12:45.041Z,10.13
2022-10-17T16:15:23.528Z,10.12
2022-10-17T16:17:51.166Z,10.01
2022-10-17T16:20:18.498Z,9.97
2022-10-17T16:22:46.456Z,9.87
2022-10-17T16:25:21.220Z,9.67
2022-10-17T16:27:50.505Z,9.55
2022-10-17T16:30:17.773Z,9.30
2022-10-17T16:32:44.713Z,9.12
2022-10-17T16:35:19.054Z,9.09
2022-10-17T16:37:45.787Z,9.05
2022-10-17T16:40:12.492Z,8.96
2022-10-17T16:42:39.173Z,8.79
2022-10-17T16:45:06.407Z,8.88
2022-10-17T16:47:33.058Z,9.02
2022-10-17T16:49:59.901Z,8.74
2022-10-17T16:52:26.733Z,8.76
2022-10-17T16:54:53.495Z,8.76
2022-10-17T16:57:20.384Z,8.45
2022-10-17T16:59:47.002Z,8.30
2022-10-17T17:02:16.359Z,8.21
2022-10-17T17:04:45.723Z,8.36
2022-10-17T17:07:12.515Z,8.01
2022-10-17T17:09:39.879Z,8.06
2022-10-17T17:12:06.707Z,8.17
2022-10-17T17:14:33.340Z,8.11
2022-10-17T17:17:00.050Z,8.08
2022-10-17T17:19:26.727Z,7.84
2022-10-17T17:21:53.442Z,7.77
2022-10-17T17:24:21.595Z,7.71
2022-10-17T17:26:56.047Z,7.71
2022-10-17T17:29:24.847Z,7.54
2022-10-17T17:31:51.905Z,7.34
2022-10-17T17:34:18.666Z,7.43
2022-10-17T17:36:45.645Z,7.33
2022-10-17T17:39:13.996Z,7.34
2022-10-17T17:41:42.072Z,7.26
2022-10-17T17:44:13.970Z,7.23
2022-10-17T17:46:43.695Z,7.23
2022-10-17T17:49:11.632Z,6.96
2022-10-17T17:51:38.787Z,6.85
2022-10-17T17:54:05.508Z,6.77
2022-10-17T17:56:32.423Z,6.70
2022-10-17T17:59:02.941Z,6.59
2022-10-17T18:01:32.023Z,6.70
2022-10-17T18:03:59.420Z,6.47
2022-10-17T18:06:27.485Z,6.46
2022-10-17T18:08:57.977Z,6.55
2022-10-17T18:11:25.728Z,6.38
2022-10-17T18:14:05.374Z,6.12
2022-10-17T18:16:33.648Z,6.16
2022-10-17T18:19:06.741Z,6.34
2022-10-17T18:21:34.600Z,6.33
2022-10-17T18:24:01.808Z,5.82
2022-10-17T18:26:28.561Z,5.87
2022-10-17T18:28:55.302Z,5.86
2022-10-17T18:31:24.555Z,5.33
2022-10-17T18:33:53.020Z,5.41
2022-10-17T18:36:20.473Z,5.76
2022-10-17T18:38:47.175Z,5.74
2022-10-17T18:41:17.205Z,5.84
2022-10-17T18:43:45.659Z,5.48
2022-10-17T18:46:15.367Z,5.54
2022-10-17T18:48:44.664Z,5.45
2022-10-17T18:51:12.488Z,5.33
2022-10-17T18:53:41.283Z,5.46
2022-10-17T18:56:08.674Z,5.45
2022-10-17T18:58:37.422Z,5.37
2022-10-17T19:01:06.102Z,5.25
2022-10-17T19:03:32.920Z,5.07
2022-10-17T19:06:07.261Z,5.04
2022-10-17T19:08:35.173Z,5.29
2022-10-17T19:11:10.334Z,5.09
2022-10-17T19:13:37.015Z,5.01
2022-10-17T19:16:12.405Z,5.45
2022-10-17T19:18:39.465Z,5.48
2022-10-17T19:21:08.646Z,5.26
2022-10-17T19:23:36.437Z,5.34
2022-10-17T19:26:08.288Z,5.08
2022-10-17T19:28:36.786Z,4.98
2022-10-17T19:31:05.122Z,5.07
2022-10-17T19:33:32.915Z,4.78
2022-10-17T19:36:02.350Z,4.82
2022-10-17T19:38:29.494Z,4.84
2022-10-17T19:40:56.386Z,4.60
2022-10-17T19:43:23.491Z,4.41
2022-10-17T19:45:58.929Z,4.46
2022-10-17T19:48:26.599Z,4.47
2022-10-17T19:50:54.123Z,4.33
2022-10-17T19:53:23.345Z,4.65
2022-10-17T19:55:50.913Z,4.41
2022-10-17T19:58:17.586Z,4.38
2022-10-17T20:00:52.806Z,4.42
2022-10-17T20:03:19.416Z,4.15
2022-10-17T20:05:46.511Z,4.13
2022-10-17T20:08:14.036Z,4.32
2022-10-17T20:10:41.306Z,4.47
2022-10-17T20:13:08.264Z,4.48
2022-10-17T20:15:35.791Z,4.57
2022-10-17T20:18:03.100Z,4.06
2022-10-17T20:20:30.048Z,4.40
2022-10-17T20:22:56.829Z,4.41
2022-10-17T20:25:23.601Z,4.43
2022-10-17T20:27:50.267Z,4.40
2022-10-17T20:30:16.997Z,4.47
2022-10-17T20:32:43.710Z,4.46
2022-10-17T20:35:10.444Z,4.39
2022-10-17T20:37:41.632Z,4.45
2022-10-17T20:40:33.571Z,4.25
2022-10-17T20:42:56.613Z,4.22
2022-10-17T20:45:37.458Z,3.99
2022-10-17T20:48:15.290Z,4.05
2022-10-17T20:50:43.545Z,4.07
2022-10-17T20:53:35.482Z,3.99
2022-10-17T20:56:09.307Z,4.06
2022-10-17T20:58:36.210Z,3.97
2022-10-17T21:01:10.610Z,4.15
2022-10-17T21:03:42.380Z,4.27
2022-10-17T21:06:12.231Z,3.81
2022-10-17T21:08:39.093Z,4.09
2022-10-17T21:11:17.734Z,4.13
2022-10-17T21:13:45.487Z,4.13
2022-10-17T21:16:14.920Z,4.01
2022-10-17T21:18:42.800Z,4.02
2022-10-17T21:21:15.658Z,4.00
2022-10-17T21:23:46.039Z,3.85
2022-10-17T21:26:17.287Z,3.71
2022-10-17T21:28:45.372Z,3.60
2022-10-17T21:31:22.694Z,3.51
2022-10-17T21:33:54.836Z,3.73
2022-10-17T21:36:22.385Z,3.79
2022-10-17T21:38:51.133Z,3.74
2022-10-17T21:41:19.699Z,3.55
2022-10-17T21:43:47.252Z,3.28
2022-10-17T21:46:17.154Z,3.57
2022-10-17T21:48:45.535Z,3.70
2022-10-17T21:51:14.947Z,3.64
2022-10-17T21:53:42.474Z,3.83
2022-10-17T21:56:18.079Z,3.64
2022-10-17T21:58:45.546Z,3.66
2022-10-17T22:01:24.326Z,3.56
2022-10-17T22:03:53.708Z,3.54
2022-10-17T22:06:39.223Z,3.62
2022-10-17T22:09:18.694Z,3.40
2022-10-17T22:11:50.817Z,3.38
2022-10-17T22:14:19.341Z,3.45
2022-10-17T22:16:47.230Z,3.47
2022-10-17T22:19:16.494Z,3.64
2022-10-17T22:21:43.142Z,3.29
2022-10-17T22:24:14.107Z,3.19
2022-10-17T22:26:42.145Z,3.16
2022-10-17T22:29:09.596Z,3.09
2022-10-17T22:31:37.255Z,3.29
2022-10-17T22:34:07.035Z,3.32
2022-10-17T22:36:34.805Z,3.40
2022-10-17T22:39:01.701Z,3.42
2022-10-17T22:41:28.387Z,3.41
2022-10-17T22:43:55.059Z,3.42
2022-10-17T22:46:22.015Z,3.35
2022-10-17T22:48:48.713Z,3.26
2022-10-17T22:51:15.929Z,3.00
2022-10-17T22:53:42.807Z,2.96
2022-10-17T22:56:12.069Z,2.99
2022-10-17T22:58:39.256Z,3.09
2022-10-17T23:01:07.958Z,3.19
2022-10-17T23:03:35.848Z,3.09
2022-10-17T23:06:03.184Z,3.13
2022-10-17T23:08:30.572Z,3.22
2022-10-17T23:10:57.561Z,3.28
2022-10-17T23:13:24.303Z,3.29
2022-10-17T23:15:55.764Z,3.04
2022-10-17T23:18:23.508Z,2.66
2022-10-17T23:20:50.359Z,2.77
2022-10-17T23:23:17.739Z,2.83
2022-10-17T23:25:44.602Z,2.88
2022-10-17T23:28:11.922Z,2.87
2022-10-17T23:30:39.317Z,2.72
2022-10-17T23:33:06.750Z,2.70
2022-10-17T23:35:33.914Z,2.70
2022-10-17T23:38:00.549Z,2.15
2022-10-17T23:40:28.136Z,2.36
2022-10-17T23:43:04.638Z,2.43
2022-10-17T23:45:36.111Z,2.20
2022-10-17T23:48:05.155Z,2.25
2022-10-17T23:50:31.873Z,2.34
2022-10-17T23:52:58.590Z,2.51
2022-10-17T23:55:25.226Z,2.43
2022-10-17T23:57:52.073Z,2.31
